Time;durP1;ratioP1;P1;durP2;ratioP2;P2;SDS_P1;SDS_P2;PMS_P1;PMS_P2;Temp;Humidity;BMP_temperature;BMP_pressure;BME280_temperature;BME280_humidity;BME280_pressure;Samples;Min_cycle;Max_cycle;Signal;HPM_P1;HPM_P2
2022/06/09 00:00:08;;;;;;;25.95;5.60;;;;;;;;;;5058087;28;20021;-59
2022/06/09 00:02:36;;;;;;;24.17;3.75;;;;;;;;;;5071489;28;20108;-59
2022/06/09 00:05:02;;;;;;;19.58;3.13;;;;;;;;;;5061873;28;20462;-59
2022/06/09 00:07:28;;;;;;;22.77;3.35;;;;;;;;;;5063662;28;20025;-59
2022/06/09 00:10:06;;;;;;;31.33;3.15;;;;;;;;;;5069277;28;20036;-59
2022/06/09 00:12:33;;;;;;;16.48;3.42;;;;;;;;;;5057862;28;20029;-59
2022/06/09 00:14:59;;;;;;;25.48;5.90;;;;;;;;;;5068344;28;20489;-59
2022/06/09 00:17:25;;;;;;;29.95;4.38;;;;;;;;;;5064741;28;20039;-59
2022/06/09 00:19:52;;;;;;;23.48;3.03;;;;;;;;;;5061016;28;20551;-59
2022/06/09 00:22:18;;;;;;;25.30;3.95;;;;;;;;;;5070590;28;20488;-59
2022/06/09 00:24:45;;;;;;;22.15;3.55;;;;;;;;;;5058855;28;20025;-59
2022/06/09 00:27:12;;;;;;;22.38;3.50;;;;;;;;;;5066776;28;20025;-59
2022/06/09 00:29:38;;;;;;;17.23;2.95;;;;;;;;;;5064846;28;20024;-59
2022/06/09 00:32:05;;;;;;;19.55;3.33;;;;;;;;;;5059236;28;20032;-59
2022/06/09 00:34:31;;;;;;;27.42;3.85;;;;;;;;;;5070525;28;20063;-59
2022/06/09 00:36:57;;;;;;;21.02;3.42;;;;;;;;;;5060135;28;20024;-59
2022/06/09 00:39:23;;;;;;;21.90;4.60;;;;;;;;;;5064615;28;20025;-59
2022/06/09 00:41:49;;;;;;;26.58;3.55;;;;;;;;;;5067372;28;20054;-59
2022/06/09 00:44:15;;;;;;;27.98;3.17;;;;;;;;;;5057508;28;20441;-59
2022/06/09 00:46:42;;;;;;;16.17;3.33;;;;;;;;;;5070485;28;20083;-59
2022/06/09 00:49:29;;;;;;;18.75;3.25;;;;;;;;;;5061322;28;20029;-59
2022/06/09 00:51:56;;;;;;;26.88;4.07;;;;;;;;;;5073622;28;20037;-59
2022/06/09 00:54:25;;;;;;;21.67;3.13;;;;;;;;;;5057165;28;20060;-59
2022/06/09 00:57:04;;;;;;;30.30;4.35;;;;;;;;;;5068584;28;20489;-59
2022/06/09 00:59:31;;;;;;;16.83;5.05;;;;;;;;;;5063577;28;20453;-59
2022/06/09 01:02:01;;;;;;;30.00;4.30;;;;;;;;;;5060418;28;20025;-59
2022/06/09 01:04:27;;;;;;;25.35;3.38;;;;;;;;;;5069419;28;20031;-59
2022/06/09 01:06:57;;;;;;;19.08;3.95;;;;;;;;;;5058338;28;20028;-59
2022/06/09 01:09:25;;;;;;;21.25;3.63;;;;;;;;;;5064059;28;20108;-59
2022/06/09 01:11:52;;;;;;;21.98;4.28;;;;;;;;;;5053615;28;20041;-59
2022/06/09 01:14:21;;;;;;;20.92;3.42;;;;;;;;;;5053379;28;20033;-59
2022/06/09 01:17:05;;;;;;;23.25;3.42;;;;;;;;;;5057248;28;20016;-59
2022/06/09 01:19:40;;;;;;;19.92;3.63;;;;;;;;;;5063027;28;20033;-59
2022/06/09 01:22:25;;;;;;;28.35;4.90;;;;;;;;;;5068005;28;20036;-59
2022/06/09 01:24:58;;;;;;;28.00;3.28;;;;;;;;;;5057471;28;20506;-59
2022/06/09 01:27:27;;;;;;;20.73;3.60;;;;;;;;;;5064062;28;20029;-59
2022/06/09 01:30:09;;;;;;;25.35;3.28;;;;;;;;;;5065885;28;20554;-59
2022/06/09 01:32:37;;;;;;;20.83;3.80;;;;;;;;;;5056296;28;20040;-59
2022/06/09 01:35:06;;;;;;;24.25;3.75;;;;;;;;;;5067534;28;20033;-59
2022/06/09 01:37:39;;;;;;;23.38;3.60;;;;;;;;;;5062439;28;20032;-59
2022/06/09 01:40:06;;;;;;;25.33;3.35;;;;;;;;;;5059950;28;20025;-59
2022/06/09 01:42:32;;;;;;;25.13;3.58;;;;;;;;;;5056226;28;20523;-60
2022/06/09 01:45:00;;;;;;;22.23;4.60;;;;;;;;;;5068296;28;20431;-59
2022/06/09 01:47:30;;;;;;;17.85;3.88;;;;;;;;;;5061395;28;20107;-59
2022/06/09 01:49:58;;;;;;;27.25;3.40;;;;;;;;;;5070471;28;20029;-59
2022/06/09 01:52:26;;;;;;;23.15;3.60;;;;;;;;;;5072256;28;20039;-59
2022/06/09 01:54:53;;;;;;;32.70;4.05;;;;;;;;;;5057252;28;20392;-59
2022/06/09 01:57:22;;;;;;;25.90;3.55;;;;;;;;;;5060243;28;20060;-59
2022/06/09 01:59:51;;;;;;;24.08;4.00;;;;;;;;;;5061166;28;20033;-59
2022/06/09 02:02:17;;;;;;;21.10;3.38;;;;;;;;;;5067849;28;20020;-59
2022/06/09 02:04:48;;;;;;;18.58;3.05;;;;;;;;;;5055338;28;20029;-59
2022/06/09 02:07:16;;;;;;;19.83;3.47;;;;;;;;;;5066230;28;20032;-59
2022/06/09 02:09:42;;;;;;;22.55;4.70;;;;;;;;;;5062563;28;20024;-59
2022/06/09 02:12:10;;;;;;;25.30;4.90;;;;;;;;;;5058686;28;20025;-59
2022/06/09 02:14:37;;;;;;;24.35;3.78;;;;;;;;;;5068717;28;20565;-59
2022/06/09 02:17:04;;;;;;;28.58;4.60;;;;;;;;;;5057028;28;20054;-59
2022/06/09 02:19:30;;;;;;;26.30;4.13;;;;;;;;;;5063195;28;20033;-59
2022/06/09 02:21:57;;;;;;;23.08;3.17;;;;;;;;;;5064457;28;20162;-59
2022/06/09 02:24:23;;;;;;;23.13;3.72;;;;;;;;;;5056655;28;20408;-59
2022/06/09 02:26:49;;;;;;;29.17;4.05;;;;;;;;;;5068521;28;20025;-59
2022/06/09 02:29:16;;;;;;;22.80;3.55;;;;;;;;;;5058212;28;20396;-59
2022/06/09 02:31:42;;;;;;;18.83;3.47;;;;;;;;;;5061641;28;20028;-59
2022/06/09 02:34:09;;;;;;;20.60;3.55;;;;;;;;;;5065823;28;20042;-59
2022/06/09 02:36:35;;;;;;;23.27;3.05;;;;;;;;;;5055248;28;20055;-59
2022/06/09 02:39:02;;;;;;;26.20;4.38;;;;;;;;;;5068016;28;20032;-59
2022/06/09 02:41:28;;;;;;;18.92;3.30;;;;;;;;;;5059877;28;20067;-59
2022/06/09 02:43:54;;;;;;;23.05;5.22;;;;;;;;;;5060654;28;20025;-59
2022/06/09 02:46:20;;;;;;;23.02;3.60;;;;;;;;;;5066574;28;20468;-59
2022/06/09 02:48:46;;;;;;;21.98;3.47;;;;;;;;;;5054809;28;20174;-59
2022/06/09 02:51:27;;;;;;;24.92;3.35;;;;;;;;;;5065072;28;20029;-59
2022/06/09 02:53:57;;;;;;;20.05;3.33;;;;;;;;;;5062787;28;20111;-59
2022/06/09 02:56:24;;;;;;;29.85;4.70;;;;;;;;;;5056780;28;20033;-59
2022/06/09 02:58:50;;;;;;;19.63;3.42;;;;;;;;;;5067202;28;20508;-59
2022/06/09 03:01:16;;;;;;;19.02;3.85;;;;;;;;;;5057262;28;20025;-59
2022/06/09 03:03:42;;;;;;;30.38;3.97;;;;;;;;;;5062564;28;20035;-59
2022/06/09 03:06:08;;;;;;;26.10;4.13;;;;;;;;;;5064387;28;20385;-59
2022/06/09 03:08:34;;;;;;;25.98;3.75;;;;;;;;;;5055380;28;20477;-59
2022/06/09 03:11:00;;;;;;;27.70;3.90;;;;;;;;;;5052465;28;20036;-59
2022/06/09 03:13:27;;;;;;;28.75;4.40;;;;;;;;;;5059925;28;20021;-59
2022/06/09 03:15:53;;;;;;;31.55;4.75;;;;;;;;;;5061286;28;20036;-59
2022/06/09 03:18:20;;;;;;;25.48;4.15;;;;;;;;;;5057710;28;20039;-59
2022/06/09 03:20:46;;;;;;;20.73;3.47;;;;;;;;;;5067812;28;20020;-59
2022/06/09 03:23:12;;;;;;;22.38;3.58;;;;;;;;;;5056453;28;20025;-59
2022/06/09 03:25:39;;;;;;;22.33;3.30;;;;;;;;;;5063362;28;20048;-59
2022/06/09 03:28:06;;;;;;;15.05;3.95;;;;;;;;;;5063407;28;20107;-59
2022/06/09 03:30:33;;;;;;;20.85;2.92;;;;;;;;;;5055717;28;20033;-59
2022/06/09 03:32:59;;;;;;;25.50;3.80;;;;;;;;;;5071700;28;20032;-59
2022/06/09 03:35:26;;;;;;;24.30;3.42;;;;;;;;;;5061972;28;20024;-59
2022/06/09 03:37:52;;;;;;;25.88;4.15;;;;;;;;;;5065497;28;20068;-59
2022/06/09 03:40:19;;;;;;;18.10;3.28;;;;;;;;;;5068701;28;20070;-59
2022/06/09 03:42:45;;;;;;;23.13;3.55;;;;;;;;;;5058478;28;20481;-59
2022/06/09 03:45:12;;;;;;;22.98;5.20;;;;;;;;;;5071158;28;20431;-59
2022/06/09 03:47:38;;;;;;;27.67;4.20;;;;;;;;;;5063067;28;20024;-59
2022/06/09 03:50:05;;;;;;;24.98;4.05;;;;;;;;;;5063642;28;20025;-59
2022/06/09 03:52:32;;;;;;;21.15;3.67;;;;;;;;;;5055629;28;20037;-59
2022/06/09 03:54:58;;;;;;;27.25;4.13;;;;;;;;;;5071445;28;20032;-59
2022/06/09 03:57:24;;;;;;;18.42;3.67;;;;;;;;;;5060942;28;20048;-59
2022/06/09 03:59:51;;;;;;;19.77;3.95;;;;;;;;;;5065440;28;20032;-59
2022/06/09 04:02:17;;;;;;;24.75;3.47;;;;;;;;;;5056349;28;20055;-59
2022/06/09 04:04:43;;;;;;;20.05;3.58;;;;;;;;;;5066992;28;20543;-59
2022/06/09 04:07:11;;;;;;;26.25;3.95;;;;;;;;;;5058516;28;20099;-59
2022/06/09 04:09:37;;;;;;;26.63;3.47;;;;;;;;;;5065951;28;20045;-59
2022/06/09 04:12:04;;;;;;;27.00;3.85;;;;;;;;;;5060833;28;20425;-59
2022/06/09 04:14:30;;;;;;;24.60;4.57;;;;;;;;;;5068845;28;20043;-59
2022/06/09 04:16:56;;;;;;;28.13;4.20;;;;;;;;;;5057741;28;20033;-59
2022/06/09 04:19:23;;;;;;;25.08;4.45;;;;;;;;;;5069931;28;20040;-59
2022/06/09 04:21:49;;;;;;;23.90;4.05;;;;;;;;;;5059503;28;20025;-59
2022/06/09 04:24:16;;;;;;;25.10;3.65;;;;;;;;;;5065339;28;20393;-59
2022/06/09 04:26:43;;;;;;;18.48;3.10;;;;;;;;;;5059139;28;20052;-59
2022/06/09 04:29:11;;;;;;;19.70;4.18;;;;;;;;;;5066882;28;20404;-59
2022/06/09 04:31:38;;;;;;;21.35;3.97;;;;;;;;;;5060469;28;20021;-59
2022/06/09 04:34:05;;;;;;;23.75;4.00;;;;;;;;;;5054804;28;20025;-59
2022/06/09 04:36:31;;;;;;;26.20;3.72;;;;;;;;;;5058238;28;20437;-60
2022/06/09 04:38:57;;;;;;;22.45;4.03;;;;;;;;;;5068367;28;21013;-60
2022/06/09 04:41:23;;;;;;;30.10;4.43;;;;;;;;;;5057939;28;20109;-59
2022/06/09 04:43:49;;;;;;;20.63;4.78;;;;;;;;;;5063052;28;20029;-60
2022/06/09 04:46:20;;;;;;;19.63;3.13;;;;;;;;;;5053220;28;20025;-59
2022/06/09 04:48:46;;;;;;;26.52;3.97;;;;;;;;;;5059007;28;20037;-59
2022/06/09 04:51:13;;;;;;;23.40;4.80;;;;;;;;;;5056198;28;20040;-59
2022/06/09 04:53:40;;;;;;;21.75;3.95;;;;;;;;;;5056061;28;20520;-59
2022/06/09 04:56:07;;;;;;;23.30;3.90;;;;;;;;;;5053662;28;20065;-59
2022/06/09 04:58:33;;;;;;;23.30;3.53;;;;;;;;;;5067553;28;20048;-59
2022/06/09 05:00:59;;;;;;;30.10;4.20;;;;;;;;;;5055564;28;20593;-59
2022/06/09 05:03:25;;;;;;;23.20;3.55;;;;;;;;;;5076776;28;20036;-59
2022/06/09 05:05:52;;;;;;;14.38;3.65;;;;;;;;;;5060946;28;20020;-59
2022/06/09 05:08:18;;;;;;;35.65;3.72;;;;;;;;;;5059506;28;20114;-59
2022/06/09 05:10:45;;;;;;;23.73;3.22;;;;;;;;;;5057013;28;20623;-59
2022/06/09 05:13:12;;;;;;;21.83;3.85;;;;;;;;;;5063526;28;20073;-59
2022/06/09 05:15:43;;;;;;;29.67;5.32;;;;;;;;;;5068665;28;20024;-59
2022/06/09 05:18:11;;;;;;;23.20;5.43;;;;;;;;;;5063314;28;20036;-59
2022/06/09 05:20:37;;;;;;;28.38;4.40;;;;;;;;;;5067146;28;20016;-59
2022/06/09 05:23:03;;;;;;;14.02;2.65;;;;;;;;;;5062169;28;20036;-60
2022/06/09 05:25:29;;;;;;;22.80;3.67;;;;;;;;;;5067764;28;20052;-59
2022/06/09 05:27:55;;;;;;;18.85;3.47;;;;;;;;;;5061635;28;20016;-59
2022/06/09 05:30:23;;;;;;;26.23;3.88;;;;;;;;;;5059745;28;20035;-59
2022/06/09 05:32:49;;;;;;;24.30;4.75;;;;;;;;;;5064221;28;20027;-59
2022/06/09 05:35:16;;;;;;;21.67;3.33;;;;;;;;;;5061917;28;20448;-59
2022/06/09 05:45:58;;;;;;;17.17;3.38;;;;;;;;;;5064403;28;20128;-62
2022/06/09 05:48:25;;;;;;;18.65;3.58;;;;;;;;;;5056702;28;20078;-62
2022/06/09 05:50:51;;;;;;;14.32;4.35;;;;;;;;;;5075818;28;20027;-62
2022/06/09 05:53:18;;;;;;;19.70;4.05;;;;;;;;;;5070021;28;20059;-62
2022/06/09 05:55:44;;;;;;;25.33;4.18;;;;;;;;;;5056689;28;20017;-62
2022/06/09 05:58:10;;;;;;;23.35;4.10;;;;;;;;;;5059051;28;20045;-61
2022/06/09 06:00:36;;;;;;;32.17;4.55;;;;;;;;;;5071213;28;20063;-62
2022/06/09 06:03:03;;;;;;;24.77;3.63;;;;;;;;;;5056621;28;20459;-62
2022/06/09 06:08:13;;;;;;;21.70;3.88;;;;;;;;;;5068208;28;20033;-62
2022/06/09 06:10:39;;;;;;;19.60;3.20;;;;;;;;;;5062609;28;20029;-62
2022/06/09 06:13:06;;;;;;;24.92;3.47;;;;;;;;;;5056317;28;20033;-62
2022/06/09 06:15:32;;;;;;;23.95;4.13;;;;;;;;;;5068017;28;20036;-62
2022/06/09 06:18:02;;;;;;;27.48;4.38;;;;;;;;;;5057793;28;20044;-62
2022/06/09 06:20:29;;;;;;;20.17;3.65;;;;;;;;;;5059243;28;20081;-62
2022/06/09 06:22:55;;;;;;;23.05;3.92;;;;;;;;;;5072680;28;20028;-62
2022/06/09 06:25:22;;;;;;;24.38;4.22;;;;;;;;;;5072061;28;20103;-61
2022/06/09 06:27:48;;;;;;;20.05;4.35;;;;;;;;;;5072664;28;20032;-62
2022/06/09 06:30:14;;;;;;;26.50;3.38;;;;;;;;;;5065958;28;20028;-61
2022/06/09 06:32:40;;;;;;;33.90;5.35;;;;;;;;;;5067482;28;20051;-62
2022/06/09 06:35:07;;;;;;;17.67;3.17;;;;;;;;;;5053104;28;20020;-62
2022/06/09 06:37:33;;;;;;;21.90;3.88;;;;;;;;;;5060576;28;20515;-62
2022/06/09 06:39:59;;;;;;;26.40;4.00;;;;;;;;;;5052086;28;20404;-62
2022/06/09 06:42:25;;;;;;;19.77;2.83;;;;;;;;;;5052318;28;20082;-61
2022/06/09 06:44:52;;;;;;;18.83;3.42;;;;;;;;;;5052202;28;20036;-61
2022/06/09 06:47:18;;;;;;;32.30;3.72;;;;;;;;;;5053962;28;20036;-62
2022/06/09 06:49:44;;;;;;;24.73;3.42;;;;;;;;;;5061183;28;20052;-62
2022/06/09 06:52:10;;;;;;;23.15;3.75;;;;;;;;;;5067615;28;20033;-62
2022/06/09 06:54:36;;;;;;;20.35;3.35;;;;;;;;;;5052252;28;20035;-62
2022/06/09 06:57:05;;;;;;;25.67;4.30;;;;;;;;;;5062754;28;20049;-62
2022/06/09 06:59:32;;;;;;;27.33;4.38;;;;;;;;;;5064131;28;20557;-61
2022/06/09 07:01:58;;;;;;;14.75;2.70;;;;;;;;;;5054417;28;20108;-62
2022/06/09 07:04:25;;;;;;;22.08;3.08;;;;;;;;;;5056395;28;20155;-62
2022/06/09 07:06:51;;;;;;;26.10;3.70;;;;;;;;;;5058233;28;20029;-62
2022/06/09 07:09:17;;;;;;;24.20;3.38;;;;;;;;;;5060416;28;20039;-61
2022/06/09 07:11:45;;;;;;;18.25;3.17;;;;;;;;;;5054584;28;20032;-62
2022/06/09 07:14:11;;;;;;;18.83;3.30;;;;;;;;;;5059521;28;20032;-62
2022/06/09 07:16:37;;;;;;;16.77;2.90;;;;;;;;;;5069741;28;20203;-61
2022/06/09 07:19:03;;;;;;;16.02;3.10;;;;;;;;;;5065362;28;20056;-62
2022/06/09 07:21:30;;;;;;;22.45;2.70;;;;;;;;;;5056900;28;20221;-62
2022/06/09 07:23:56;;;;;;;18.15;3.08;;;;;;;;;;5061612;28;20455;-61
2022/06/09 07:26:22;;;;;;;17.38;2.83;;;;;;;;;;5054739;28;20473;-61
2022/06/09 07:28:48;;;;;;;16.42;3.15;;;;;;;;;;5063137;28;20404;-62
2022/06/09 07:31:15;;;;;;;22.70;2.90;;;;;;;;;;5053633;28;20545;-62
2022/06/09 07:33:41;;;;;;;15.52;2.80;;;;;;;;;;5072122;28;20481;-62
2022/06/09 07:36:20;;;;;;;26.92;3.55;;;;;;;;;;5071998;28;20203;-62
2022/06/09 07:38:46;;;;;;;24.38;3.35;;;;;;;;;;5072180;28;20028;-62
2022/06/09 07:41:14;;;;;;;15.43;3.10;;;;;;;;;;5072377;28;20024;-62
2022/06/09 07:43:40;;;;;;;13.93;3.20;;;;;;;;;;5066962;28;20021;-62
2022/06/09 07:46:06;;;;;;;12.63;2.80;;;;;;;;;;5059924;28;20055;-62
2022/06/09 07:48:32;;;;;;;13.32;2.60;;;;;;;;;;5070220;28;20029;-62
2022/06/09 07:50:58;;;;;;;21.67;3.13;;;;;;;;;;5070251;28;20016;-62
2022/06/09 07:53:25;;;;;;;18.65;3.10;;;;;;;;;;5070759;28;20435;-62
2022/06/09 07:55:51;;;;;;;21.42;3.22;;;;;;;;;;5071477;28;20039;-62
2022/06/09 07:58:18;;;;;;;11.40;2.03;;;;;;;;;;5071086;28;20496;-62
2022/06/09 08:00:45;;;;;;;12.63;2.25;;;;;;;;;;5052069;28;20025;-62
2022/06/09 08:03:16;;;;;;;14.73;2.67;;;;;;;;;;5055923;28;20105;-62
2022/06/09 08:05:42;;;;;;;10.30;2.08;;;;;;;;;;5059878;28;20029;-61
2022/06/09 08:08:08;;;;;;;13.95;2.10;;;;;;;;;;5054242;28;20537;-62
2022/06/09 08:10:36;;;;;;;17.80;2.05;;;;;;;;;;5064988;28;20025;-62
2022/06/09 08:13:03;;;;;;;9.70;1.83;;;;;;;;;;5055096;28;20091;-61
2022/06/09 08:15:29;;;;;;;9.68;2.03;;;;;;;;;;5069764;28;20079;-62
2022/06/09 08:17:57;;;;;;;16.52;2.38;;;;;;;;;;5057219;28;20029;-62
2022/06/09 08:20:24;;;;;;;10.98;2.15;;;;;;;;;;5059390;28;20041;-62
2022/06/09 08:22:51;;;;;;;11.45;2.42;;;;;;;;;;5055071;28;20390;-61
2022/06/09 08:25:18;;;;;;;12.85;2.22;;;;;;;;;;5067465;28;20063;-62
2022/06/09 08:27:46;;;;;;;7.85;1.67;;;;;;;;;;5073035;28;20028;-62
2022/06/09 08:30:13;;;;;;;14.43;3.13;;;;;;;;;;5060826;28;20032;-62
2022/06/09 08:32:40;;;;;;;14.57;2.00;;;;;;;;;;5063779;28;20036;-62
2022/06/09 08:35:09;;;;;;;10.93;2.13;;;;;;;;;;5058988;28;20037;-62
2022/06/09 08:37:35;;;;;;;15.70;2.60;;;;;;;;;;5054703;28;20522;-62
2022/06/09 08:40:01;;;;;;;15.05;3.05;;;;;;;;;;5055755;28;20029;-62
2022/06/09 08:42:28;;;;;;;11.23;2.25;;;;;;;;;;5068793;28;20154;-62
2022/06/09 08:44:54;;;;;;;10.55;1.90;;;;;;;;;;5070644;28;20024;-62
2022/06/09 08:47:23;;;;;;;11.48;2.38;;;;;;;;;;5067173;28;20110;-61
2022/06/09 08:49:49;;;;;;;14.75;2.05;;;;;;;;;;5064853;28;20151;-62
2022/06/09 08:52:18;;;;;;;11.30;1.90;;;;;;;;;;5060034;28;20041;-62
2022/06/09 08:54:45;;;;;;;10.82;1.80;;;;;;;;;;5063048;28;20040;-62
2022/06/09 08:57:22;;;;;;;9.93;1.98;;;;;;;;;;5071105;28;20132;-62
2022/06/09 08:59:52;;;;;;;10.50;1.77;;;;;;;;;;5073574;28;20036;-62
2022/06/09 09:02:22;;;;;;;8.07;1.95;;;;;;;;;;5059846;28;20032;-62
2022/06/09 09:04:53;;;;;;;15.38;2.30;;;;;;;;;;5070879;28;20380;-62
2022/06/09 09:07:26;;;;;;;8.32;1.80;;;;;;;;;;5068140;28;20032;-62
2022/06/09 09:10:12;;;;;;;12.05;1.83;;;;;;;;;;5063347;28;20072;-62
2022/06/09 09:12:43;;;;;;;10.88;1.60;;;;;;;;;;5053955;28;20032;-61
2022/06/09 09:15:09;;;;;;;8.65;1.40;;;;;;;;;;5053925;28;20098;-62
2022/06/09 09:17:38;;;;;;;9.65;1.60;;;;;;;;;;5053280;28;20029;-61
2022/06/09 09:20:04;;;;;;;8.65;2.25;;;;;;;;;;5054281;28;20029;-62
2022/06/09 09:22:39;;;;;;;10.70;2.03;;;;;;;;;;5054048;28;20032;-62
2022/06/09 09:25:21;;;;;;;11.32;1.50;;;;;;;;;;5065448;28;20028;-62
2022/06/09 09:27:49;;;;;;;6.93;1.45;;;;;;;;;;5073179;28;20428;-62
2022/06/09 09:30:19;;;;;;;8.23;1.33;;;;;;;;;;5072580;28;20021;-62
2022/06/09 09:32:46;;;;;;;11.95;1.70;;;;;;;;;;5072591;28;20036;-62
2022/06/09 09:35:19;;;;;;;10.30;1.80;;;;;;;;;;5072513;28;20036;-62
2022/06/09 09:37:47;;;;;;;9.20;1.80;;;;;;;;;;5073280;28;20037;-62
2022/06/09 09:40:30;;;;;;;12.32;2.00;;;;;;;;;;5073408;28;20060;-62
2022/06/09 09:43:03;;;;;;;10.35;1.75;;;;;;;;;;5073387;28;20111;-62
2022/06/09 09:45:50;;;;;;;7.68;1.70;;;;;;;;;;5073441;28;20098;-62
2022/06/09 09:48:19;;;;;;;8.00;1.80;;;;;;;;;;5073066;28;20029;-62
2022/06/09 09:50:56;;;;;;;9.93;2.10;;;;;;;;;;5073022;28;20107;-62
2022/06/09 09:53:27;;;;;;;8.82;1.58;;;;;;;;;;5073427;28;20124;-62
2022/06/09 09:55:55;;;;;;;11.80;1.58;;;;;;;;;;5073154;28;20412;-62
2022/06/09 09:58:24;;;;;;;13.23;2.22;;;;;;;;;;5073148;28;20118;-62
2022/06/09 10:00:52;;;;;;;10.00;1.85;;;;;;;;;;5072635;28;20512;-62
2022/06/09 10:09:07;;;;;;;9.25;1.50;;;;;;;;;;5072655;28;20044;-62
2022/06/09 10:11:53;;;;;;;12.82;1.73;;;;;;;;;;5072838;28;20024;-62
2022/06/09 10:14:28;;;;;;;8.60;1.90;;;;;;;;;;5072802;28;20411;-62
2022/06/09 10:16:55;;;;;;;7.82;1.55;;;;;;;;;;5072114;28;20032;-62
2022/06/09 10:19:23;;;;;;;8.48;1.58;;;;;;;;;;5072748;28;20056;-62
2022/06/09 10:21:56;;;;;;;10.55;1.58;;;;;;;;;;5072467;28;20024;-62
2022/06/09 10:24:25;;;;;;;4.30;1.08;;;;;;;;;;5072512;28;20027;-62
2022/06/09 10:26:55;;;;;;;6.35;1.33;;;;;;;;;;5072268;28;20051;-62
2022/06/09 10:29:26;;;;;;;8.48;1.73;;;;;;;;;;5072547;28;20111;-62
2022/06/09 10:32:05;;;;;;;13.88;1.83;;;;;;;;;;5072254;28;20078;-62
2022/06/09 10:34:37;;;;;;;6.30;1.95;;;;;;;;;;5072358;28;20036;-62
2022/06/09 10:37:15;;;;;;;6.18;1.85;;;;;;;;;;5072292;28;20381;-62
2022/06/09 10:39:43;;;;;;;5.55;1.52;;;;;;;;;;5058963;28;20041;-62
2022/06/09 10:42:23;;;;;;;15.50;1.70;;;;;;;;;;5059493;28;20023;-62
2022/06/09 10:44:57;;;;;;;5.80;1.20;;;;;;;;;;5063022;28;20021;-62
2022/06/09 10:55:58;;;;;;;9.27;1.40;;;;;;;;;;5057686;28;20036;-62
2022/06/09 10:58:30;;;;;;;6.13;1.83;;;;;;;;;;5061329;28;20056;-62
2022/06/09 11:00:58;;;;;;;9.48;1.65;;;;;;;;;;5059498;28;20065;-62
2022/06/09 11:03:51;;;;;;;6.43;1.67;;;;;;;;;;5064115;28;20044;-62
2022/06/09 11:06:24;;;;;;;5.47;1.20;;;;;;;;;;5065065;28;20094;-62
2022/06/09 11:09:09;;;;;;;8.27;1.73;;;;;;;;;;5058610;28;20659;-62
2022/06/09 11:11:47;;;;;;;7.38;1.30;;;;;;;;;;5066700;28;20033;-62
2022/06/09 11:14:31;;;;;;;5.45;1.05;;;;;;;;;;5059599;28;20059;-67
2022/06/09 11:17:16;;;;;;;9.27;1.83;;;;;;;;;;5071486;28;20114;-62
2022/06/09 11:19:49;;;;;;;8.85;1.48;;;;;;;;;;5059981;28;20484;-62
2022/06/09 11:22:21;;;;;;;5.50;1.52;;;;;;;;;;5063027;28;20028;-62
2022/06/09 11:24:50;;;;;;;6.47;1.30;;;;;;;;;;5071001;28;20029;-62
2022/06/09 11:27:19;;;;;;;6.50;1.25;;;;;;;;;;5068305;28;20032;-62
2022/06/09 11:29:45;;;;;;;6.75;1.38;;;;;;;;;;5060620;28;20074;-62
2022/06/09 11:32:19;;;;;;;8.00;1.33;;;;;;;;;;5051496;28;20032;-62
2022/06/09 11:34:48;;;;;;;7.15;1.63;;;;;;;;;;5063787;28;20029;-62
2022/06/09 11:37:37;;;;;;;7.82;1.27;;;;;;;;;;5068614;28;20040;-62
2022/06/09 11:40:31;;;;;;;8.30;1.65;;;;;;;;;;5014071;28;20425;-62
2022/06/09 11:43:11;;;;;;;7.55;1.13;;;;;;;;;;5027899;28;20073;-63
2022/06/09 11:45:41;;;;;;;9.88;1.25;;;;;;;;;;5030200;28;20072;-63
2022/06/09 11:48:19;;;;;;;9.07;1.25;;;;;;;;;;5029781;28;20043;-63
2022/06/09 11:50:46;;;;;;;8.35;1.10;;;;;;;;;;5029449;28;20048;-63
2022/06/09 11:53:18;;;;;;;3.83;1.50;;;;;;;;;;5025993;28;20050;-63
2022/06/09 11:56:02;;;;;;;6.07;1.58;;;;;;;;;;5028389;28;20038;-63
2022/06/09 11:58:34;;;;;;;10.45;1.33;;;;;;;;;;5032958;28;20497;-63
2022/06/09 12:01:16;;;;;;;10.40;2.28;;;;;;;;;;5025603;28;20038;-63
2022/06/09 12:03:58;;;;;;;4.78;1.45;;;;;;;;;;5013406;28;20520;-63
2022/06/09 12:06:35;;;;;;;8.63;1.27;;;;;;;;;;5013439;28;20603;-63
2022/06/09 12:09:09;;;;;;;6.03;1.10;;;;;;;;;;5013293;28;20096;-63
2022/06/09 12:11:50;;;;;;;10.55;1.30;;;;;;;;;;5013234;28;20596;-63
2022/06/09 12:14:18;;;;;;;6.15;1.20;;;;;;;;;;5013228;28;20034;-63
2022/06/09 12:17:05;;;;;;;8.57;1.70;;;;;;;;;;5028509;28;20052;-63
2022/06/09 12:19:36;;;;;;;6.20;1.60;;;;;;;;;;5055033;28;20025;-63
2022/06/09 12:22:25;;;;;;;7.82;1.27;;;;;;;;;;5054976;28;20110;-63
2022/06/09 12:25:14;;;;;;;9.82;1.30;;;;;;;;;;5064796;28;20146;-63
2022/06/09 12:27:42;;;;;;;8.85;1.20;;;;;;;;;;5074648;28;20385;-63
2022/06/09 12:30:26;;;;;;;5.55;0.98;;;;;;;;;;5073533;28;20021;-63
2022/06/09 12:32:56;;;;;;;4.25;1.50;;;;;;;;;;5065361;28;20028;-63
2022/06/09 12:35:22;;;;;;;6.63;1.48;;;;;;;;;;5054505;28;20112;-63
2022/06/09 12:37:53;;;;;;;3.17;0.85;;;;;;;;;;5053735;28;20029;-63
2022/06/09 12:40:21;;;;;;;6.05;0.93;;;;;;;;;;5054371;28;20049;-63
2022/06/09 12:42:47;;;;;;;2.15;1.02;;;;;;;;;;5067431;28;20025;-63
2022/06/09 12:45:18;;;;;;;5.93;1.33;;;;;;;;;;5074717;28;20032;-63
2022/06/09 12:47:53;;;;;;;5.00;0.90;;;;;;;;;;5058286;28;20025;-63
2022/06/09 12:50:21;;;;;;;4.43;0.98;;;;;;;;;;5060538;28;20064;-63
2022/06/09 12:52:48;;;;;;;4.70;1.00;;;;;;;;;;5071824;28;20067;-63
2022/06/09 12:55:14;;;;;;;5.60;1.20;;;;;;;;;;5053966;28;20037;-62
2022/06/09 12:57:45;;;;;;;8.95;1.33;;;;;;;;;;5054068;28;20516;-63
2022/06/09 13:00:17;;;;;;;4.45;1.10;;;;;;;;;;5053951;28;20040;-63
2022/06/09 13:02:43;;;;;;;2.60;0.80;;;;;;;;;;5062293;28;20026;-63
2022/06/09 13:05:12;;;;;;;5.45;1.40;;;;;;;;;;5072360;28;20033;-63
2022/06/09 13:07:41;;;;;;;4.82;1.15;;;;;;;;;;5073096;28;20025;-63
2022/06/09 13:10:09;;;;;;;7.10;1.70;;;;;;;;;;5073849;28;20056;-63
2022/06/09 13:12:51;;;;;;;6.55;0.90;;;;;;;;;;5074279;28;20099;-63
2022/06/09 13:15:33;;;;;;;4.75;1.15;;;;;;;;;;5072966;28;20028;-63
2022/06/09 13:18:11;;;;;;;6.75;1.30;;;;;;;;;;5074044;28;20039;-63
2022/06/09 13:20:39;;;;;;;6.22;1.52;;;;;;;;;;5073833;28;20039;-63
2022/06/09 13:23:06;;;;;;;4.75;1.33;;;;;;;;;;5074196;28;20020;-63
2022/06/09 13:25:32;;;;;;;8.63;1.30;;;;;;;;;;5073306;28;20024;-62
2022/06/09 13:27:59;;;;;;;6.78;1.50;;;;;;;;;;5074030;28;20036;-63
2022/06/09 13:30:30;;;;;;;5.40;1.02;;;;;;;;;;5069229;28;20116;-63
2022/06/09 13:32:57;;;;;;;5.03;1.23;;;;;;;;;;5053971;28;20029;-63
2022/06/09 13:35:40;;;;;;;4.85;1.50;;;;;;;;;;5053620;28;20384;-63
2022/06/09 13:38:16;;;;;;;7.72;1.17;;;;;;;;;;5053521;28;20063;-63
2022/06/09 13:40:44;;;;;;;5.78;1.17;;;;;;;;;;5053646;28;20033;-63
2022/06/09 13:43:30;;;;;;;4.90;1.25;;;;;;;;;;5054120;28;20040;-63
2022/06/09 13:46:11;;;;;;;7.80;1.50;;;;;;;;;;5053840;28;20082;-63
2022/06/09 13:48:48;;;;;;;5.70;1.23;;;;;;;;;;5053424;28;20036;-63
2022/06/09 13:51:23;;;;;;;9.15;1.45;;;;;;;;;;5053197;28;20029;-63
2022/06/09 13:53:51;;;;;;;6.45;1.23;;;;;;;;;;5053248;28;20040;-63
2022/06/09 13:56:20;;;;;;;4.97;1.08;;;;;;;;;;5053109;28;20021;-63
2022/06/09 13:58:46;;;;;;;4.38;1.48;;;;;;;;;;5058651;28;20447;-63
2022/06/09 14:01:13;;;;;;;5.68;1.30;;;;;;;;;;5061168;28;20036;-63
2022/06/09 14:03:47;;;;;;;7.70;1.30;;;;;;;;;;5073023;28;20028;-63
2022/06/09 14:06:18;;;;;;;4.75;1.17;;;;;;;;;;5072897;28;20091;-63
2022/06/09 14:08:45;;;;;;;7.78;1.10;;;;;;;;;;5072734;28;20112;-63
2022/06/09 14:11:18;;;;;;;4.55;1.00;;;;;;;;;;5072986;28;20387;-63
2022/06/09 14:13:45;;;;;;;5.50;1.17;;;;;;;;;;5059472;28;20031;-63
2022/06/09 14:16:12;;;;;;;4.45;1.20;;;;;;;;;;5052001;28;20439;-63
2022/06/09 14:18:38;;;;;;;6.20;1.20;;;;;;;;;;5051707;28;20388;-63
2022/06/09 14:21:05;;;;;;;4.07;0.80;;;;;;;;;;5052789;28;20028;-63
2022/06/09 14:23:33;;;;;;;7.88;0.88;;;;;;;;;;5052452;28;20033;-63
2022/06/09 14:26:04;;;;;;;7.40;1.35;;;;;;;;;;5066498;28;20132;-63
2022/06/09 14:28:31;;;;;;;4.40;0.90;;;;;;;;;;5071485;28;20052;-63
2022/06/09 14:30:58;;;;;;;5.00;1.02;;;;;;;;;;5072667;28;20537;-63
2022/06/09 14:33:24;;;;;;;5.78;1.30;;;;;;;;;;5072411;28;20033;-63
2022/06/09 14:35:50;;;;;;;4.28;1.10;;;;;;;;;;5072690;28;20162;-63
2022/06/09 14:38:17;;;;;;;4.25;1.10;;;;;;;;;;5072205;28;20496;-63
2022/06/09 14:40:44;;;;;;;5.97;1.30;;;;;;;;;;5072303;28;20029;-63
2022/06/09 14:43:10;;;;;;;6.95;1.30;;;;;;;;;;5056606;28;20028;-63
2022/06/09 14:45:37;;;;;;;3.55;1.17;;;;;;;;;;5052280;28;20104;-63
2022/06/09 14:48:04;;;;;;;4.97;1.20;;;;;;;;;;5052854;28;20025;-63
2022/06/09 14:50:31;;;;;;;6.85;1.13;;;;;;;;;;5052147;28;20021;-63
2022/06/09 14:52:57;;;;;;;6.80;1.10;;;;;;;;;;5052172;28;20082;-63
2022/06/09 14:55:23;;;;;;;5.35;1.35;;;;;;;;;;5052206;28;20025;-63
2022/06/09 14:57:49;;;;;;;3.45;1.17;;;;;;;;;;5052196;28;20136;-63
2022/06/09 15:00:21;;;;;;;4.85;1.00;;;;;;;;;;5052262;28;20386;-63
2022/06/09 15:02:47;;;;;;;4.78;1.02;;;;;;;;;;5052163;28;20469;-63
2022/06/09 15:05:16;;;;;;;6.22;1.20;;;;;;;;;;5052070;28;20485;-63
2022/06/09 15:07:44;;;;;;;5.25;1.00;;;;;;;;;;5054124;28;20052;-63
2022/06/09 15:10:13;;;;;;;5.85;1.08;;;;;;;;;;5058578;28;20036;-63